createdAt,value
2022-09-24T00:01:07.222Z,100232.06
2022-09-24T00:03:33.647Z,100231.78
2022-09-24T00:06:02.261Z,100231.50
2022-09-24T00:08:29.663Z,100227.56
2022-09-24T00:10:58.899Z,100216.84
2022-09-24T00:13:25.736Z,100216.97
2022-09-24T00:15:52.611Z,100217.94
2022-09-24T00:18:19.329Z,100216.00
2022-09-24T00:20:45.832Z,100221.22
2022-09-24T00:23:12.550Z,100214.84
2022-09-24T00:26:04.113Z,100217.66
2022-09-24T00:28:31.175Z,100205.13
2022-09-24T00:30:59.166Z,100216.84
2022-09-24T00:33:26.541Z,100202.72
2022-09-24T00:35:52.994Z,100213.72
2022-09-24T00:38:19.594Z,100197.88
2022-09-24T00:40:46.686Z,100196.44
2022-09-24T00:43:24.014Z,100205.78
2022-09-24T00:45:52.024Z,100201.50
2022-09-24T00:48:18.481Z,100197.13
2022-09-24T00:50:44.952Z,100197.25
2022-09-24T00:53:16.489Z,100199.25
2022-09-24T00:55:44.208Z,100187.53
2022-09-24T00:58:11.150Z,100190.34
2022-09-24T01:00:39.357Z,100190.47
2022-09-24T01:03:08.009Z,100199.50
2022-09-24T01:05:35.570Z,100189.34
2022-09-24T01:08:02.114Z,100191.31
2022-09-24T01:10:51.118Z,100188.78
2022-09-24T01:13:29.134Z,100194.41
2022-09-24T01:16:00.613Z,100189.31
2022-09-24T01:18:40.836Z,100192.13
2022-09-24T01:21:20.018Z,100188.16
2022-09-24T01:24:10.902Z,100190.13
2022-09-24T01:26:44.597Z,100185.88
2022-09-24T01:29:28.375Z,100194.78
2022-09-24T01:32:05.287Z,100196.47
2022-09-24T01:34:38.916Z,100191.84
2022-09-24T01:37:05.919Z,100198.88
2022-09-24T01:39:33.317Z,100191.56
2022-09-24T01:42:00.206Z,100196.66
2022-09-24T01:44:26.754Z,100201.44
2022-09-24T01:46:54.105Z,100198.16
2022-09-24T01:49:21.000Z,100198.44
2022-09-24T01:51:50.932Z,100194.31
2022-09-24T01:54:20.924Z,100201.91
2022-09-24T01:56:59.513Z,100204.16
2022-09-24T01:59:29.062Z,100192.84
2022-09-24T02:01:59.842Z,100203.81
2022-09-24T02:04:28.267Z,100201.28
2022-09-24T02:06:57.567Z,100203.22
2022-09-24T02:09:37.773Z,100202.38
2022-09-24T02:12:10.817Z,100201.53
2022-09-24T02:14:42.881Z,100201.81
2022-09-24T02:17:10.188Z,100208.28
2022-09-24T02:19:40.373Z,100199.50
2022-09-24T02:22:09.481Z,100202.34
2022-09-24T02:24:46.660Z,100202.34
2022-09-24T02:27:13.251Z,100198.91
2022-09-24T02:29:39.750Z,100197.50
2022-09-24T02:32:08.462Z,100196.75
2022-09-24T02:34:38.413Z,100194.34
2022-09-24T02:37:06.179Z,100194.59
2022-09-24T02:39:32.621Z,100198.53
2022-09-24T02:41:59.763Z,100193.44
2022-09-24T02:44:26.494Z,100193.69
2022-09-24T02:46:52.952Z,100200.41
2022-09-24T02:49:19.415Z,100197.88
2022-09-24T02:51:45.890Z,100193.78
2022-09-24T02:54:12.343Z,100197.53
2022-09-24T02:56:38.838Z,100192.69
2022-09-24T02:59:05.399Z,100191.25
2022-09-24T03:01:32.469Z,100189.56
2022-09-24T03:03:59.111Z,100188.94
2022-09-24T03:06:25.862Z,100194.31
2022-09-24T03:08:53.792Z,100185.81
2022-09-24T03:11:21.778Z,100191.69
2022-09-24T03:13:48.469Z,100190.50
2022-09-24T03:16:15.459Z,100187.34
2022-09-24T03:18:42.064Z,100187.34
2022-09-24T03:21:10.342Z,100185.38
2022-09-24T03:23:37.418Z,100176.38
2022-09-24T03:26:04.361Z,100188.06
2022-09-24T03:28:31.168Z,100186.63
2022-09-24T03:31:00.679Z,100180.53
2022-09-24T03:33:29.389Z,100179.81
2022-09-24T03:35:59.940Z,100179.13
2022-09-24T03:38:26.606Z,100183.00
2022-09-24T03:40:53.258Z,100186.69
2022-09-24T03:43:20.008Z,100188.38
2022-09-24T03:45:46.538Z,100186.69
2022-09-24T03:48:13.144Z,100186.94
2022-09-24T03:50:39.636Z,100185.22
2022-09-24T03:53:06.285Z,100183.75
2022-09-24T03:55:32.830Z,100178.53
2022-09-24T03:57:59.416Z,100178.66
2022-09-24T04:00:27.250Z,100184.25
2022-09-24T04:02:53.796Z,100182.59
2022-09-24T04:05:20.862Z,100188.19
2022-09-24T04:07:47.388Z,100170.41
2022-09-24T04:10:13.845Z,100170.41
2022-09-24T04:12:40.324Z,100174.94
2022-09-24T04:15:06.963Z,100178.56
2022-09-24T04:17:33.397Z,100170.66
2022-09-24T04:19:59.999Z,100177.47
2022-09-24T04:22:26.416Z,100169.56
2022-09-24T04:24:52.894Z,100174.06
2022-09-24T04:27:19.399Z,100160.81
2022-09-24T04:29:45.900Z,100170.66
2022-09-24T04:32:12.320Z,100164.47
2022-09-24T04:34:38.797Z,100162.63
2022-09-24T04:37:05.895Z,100161.66
2022-09-24T04:39:32.432Z,100174.06
2022-09-24T04:41:58.907Z,100172.38
2022-09-24T04:44:25.369Z,100175.78
2022-09-24T04:46:52.081Z,100173.81
2022-09-24T04:49:18.570Z,100177.22
2022-09-24T04:51:45.104Z,100180.38
2022-09-24T04:54:11.619Z,100173.69
2022-09-24T04:56:38.039Z,100175.97
2022-09-24T04:59:04.681Z,100182.50
2022-09-24T05:01:31.426Z,100179.19
2022-09-24T05:03:57.923Z,100189.13
2022-09-24T05:06:24.431Z,100184.09
2022-09-24T05:08:50.835Z,100177.72
2022-09-24T05:11:19.449Z,100183.63
2022-09-24T05:13:46.387Z,100186.56
2022-09-24T05:16:12.957Z,100188.19
2022-09-24T05:18:39.777Z,100191.06
2022-09-24T05:21:06.864Z,100190.28
2022-09-24T05:23:33.310Z,100198.28
2022-09-24T05:26:18.414Z,100193.25
2022-09-24T05:28:45.156Z,100187.97
2022-09-24T05:31:11.962Z,100183.91
2022-09-24T05:33:38.572Z,100184.94
2022-09-24T05:36:05.112Z,100181.56
2022-09-24T05:38:33.134Z,100184.69
2022-09-24T05:40:59.938Z,100178.75
2022-09-24T05:43:32.851Z,100177.34
2022-09-24T05:45:59.323Z,100177.88
2022-09-24T05:48:28.908Z,100174.16
2022-09-24T05:50:55.593Z,100179.25
2022-09-24T05:53:23.189Z,100182.56
2022-09-24T05:55:49.646Z,100193.22
2022-09-24T05:58:16.214Z,100202.94
2022-09-24T06:00:44.597Z,100208.34
2022-09-24T06:03:15.113Z,100208.69
2022-09-24T06:05:46.529Z,100209.94
2022-09-24T06:08:15.295Z,100219.25
2022-09-24T06:10:42.498Z,100217.44
2022-09-24T06:13:11.552Z,100226.88
2022-09-24T06:15:38.517Z,100223.22
2022-09-24T06:18:05.541Z,100224.03
2022-09-24T06:20:32.251Z,100230.88
2022-09-24T06:22:58.948Z,100222.88
2022-09-24T06:25:26.301Z,100227.91
2022-09-24T06:28:00.953Z,100217.25
2022-09-24T06:30:30.792Z,100213.91
2022-09-24T06:33:01.889Z,100222.53
2022-09-24T06:35:29.213Z,100213.91
2022-09-24T06:37:55.684Z,100218.63
2022-09-24T06:40:24.518Z,100212.78
2022-09-24T06:42:51.589Z,100218.16
2022-09-24T06:45:18.187Z,100216.38
2022-09-24T06:47:44.671Z,100225.03
2022-09-24T06:50:11.215Z,100219.09
2022-09-24T06:52:37.686Z,100217.16
2022-09-24T06:55:04.350Z,100223.56
2022-09-24T06:57:31.052Z,100221.09
2022-09-24T06:59:57.536Z,100219.00
2022-09-24T07:02:24.174Z,100227.59
2022-09-24T07:04:50.743Z,100231.53
2022-09-24T07:07:29.795Z,100230.47
2022-09-24T07:09:56.861Z,100227.19
2022-09-24T07:12:23.759Z,100244.03
2022-09-24T07:14:50.241Z,100239.28
2022-09-24T07:17:16.831Z,100242.00
2022-09-24T07:19:43.317Z,100235.19
2022-09-24T07:22:09.804Z,100243.56
2022-09-24T07:24:36.290Z,100241.66
2022-09-24T07:27:06.135Z,100246.31
2022-09-24T07:29:32.736Z,100251.38
2022-09-24T07:31:59.767Z,100251.53
2022-09-24T07:34:26.202Z,100262.03
2022-09-24T07:36:52.782Z,100250.56
2022-09-24T07:39:20.245Z,100257.41
2022-09-24T07:41:47.235Z,100248.09
2022-09-24T07:44:13.721Z,100249.22
2022-09-24T07:46:40.154Z,100240.06
2022-09-24T07:49:06.663Z,100241.47
2022-09-24T07:51:33.398Z,100233.94
2022-09-24T07:54:00.028Z,100239.09
2022-09-24T07:56:26.524Z,100240.41
2022-09-24T07:58:53.346Z,100238.75
2022-09-24T08:01:20.051Z,100239.59
2022-09-24T08:03:46.785Z,100248.00
2022-09-24T08:06:13.728Z,100243.66
2022-09-24T08:08:40.289Z,100230.69
2022-09-24T08:11:07.772Z,100228.91
2022-09-24T08:13:34.653Z,100235.31
2022-09-24T08:16:02.060Z,100227.00
2022-09-24T08:18:30.987Z,100227.00
2022-09-24T08:20:58.041Z,100222.81
2022-09-24T08:23:24.530Z,100214.19
2022-09-24T08:25:51.394Z,100225.88
2022-09-24T08:28:19.776Z,100231.41
2022-09-24T08:30:46.742Z,100224.84
2022-09-24T08:33:14.048Z,100226.53
2022-09-24T08:35:40.598Z,100231.22
2022-09-24T08:38:07.565Z,100231.66
2022-09-24T08:40:37.113Z,100240.50
2022-09-24T08:43:09.455Z,100238.31
2022-09-24T08:46:01.480Z,100240.72
2022-09-24T08:48:31.725Z,100236.72
2022-09-24T08:51:03.573Z,100245.59
2022-09-24T08:53:59.237Z,100238.38
2022-09-24T08:56:27.225Z,100234.59
2022-09-24T08:59:05.203Z,100236.66
2022-09-24T09:01:36.856Z,100242.94
2022-09-24T09:04:14.065Z,100240.41
2022-09-24T09:06:40.496Z,100241.25
2022-09-24T09:09:39.483Z,100238.59
2022-09-24T09:12:11.371Z,100243.09
2022-09-24T09:14:49.912Z,100234.78
2022-09-24T09:17:22.420Z,100229.13
2022-09-24T09:19:53.833Z,100219.44
2022-09-24T09:22:23.783Z,100219.63
2022-09-24T09:24:58.629Z,100217.31
2022-09-24T09:27:29.840Z,100207.28
2022-09-24T09:29:57.880Z,100211.44
2022-09-24T09:32:24.329Z,100202.50
2022-09-24T09:35:00.805Z,100204.84
2022-09-24T09:37:27.375Z,100201.91
2022-09-24T09:40:12.682Z,100211.22
2022-09-24T09:42:42.863Z,100194.97
2022-09-24T09:45:18.778Z,100199.31
2022-09-24T09:47:49.865Z,100198.63
2022-09-24T09:50:20.760Z,100196.44
2022-09-24T09:52:47.535Z,100200.22
2022-09-24T09:55:22.012Z,100211.19
2022-09-24T09:57:48.853Z,100203.72
2022-09-24T10:00:34.816Z,100206.63
2022-09-24T10:03:01.377Z,100195.56
2022-09-24T10:05:28.917Z,100192.72
2022-09-24T10:07:57.974Z,100204.75
2022-09-24T10:10:25.993Z,100209.25
2022-09-24T10:12:53.870Z,100205.75
2022-09-24T10:15:21.988Z,100196.31
2022-09-24T10:17:51.072Z,100202.19
2022-09-24T10:20:17.669Z,100207.66
2022-09-24T10:22:49.156Z,100201.88
2022-09-24T10:25:26.883Z,100196.06
2022-09-24T10:28:17.897Z,100190.69
2022-09-24T10:30:54.992Z,100196.88
2022-09-24T10:33:21.769Z,100189.41
2022-09-24T10:35:48.349Z,100194.28
2022-09-24T10:38:16.461Z,100195.00
2022-09-24T10:40:43.104Z,100196.88
2022-09-24T10:43:19.468Z,100207.63
2022-09-24T10:45:46.931Z,100194.75
2022-09-24T10:48:20.040Z,100196.59
2022-09-24T10:50:59.025Z,100197.19
2022-09-24T10:53:42.315Z,100204.88
2022-09-24T10:56:08.903Z,100199.41
2022-09-24T10:58:38.466Z,100197.41
2022-09-24T11:01:04.990Z,100196.31
2022-09-24T11:03:31.421Z,100189.94
2022-09-24T11:06:02.804Z,100189.50
2022-09-24T11:09:07.945Z,100184.34
2022-09-24T11:11:51.111Z,100181.19
2022-09-24T11:14:27.224Z,100175.25
2022-09-24T11:16:59.527Z,100159.28
2022-09-24T11:19:34.682Z,100160.63
2022-09-24T11:22:13.215Z,100156.63
2022-09-24T11:24:42.328Z,100152.31
2022-09-24T11:27:27.366Z,100157.25
2022-09-24T11:30:12.444Z,100146.22
2022-09-24T11:32:38.864Z,100148.44
2022-09-24T11:35:40.806Z,100141.59
2022-09-24T11:38:07.205Z,100142.59
2022-09-24T11:40:37.049Z,100147.59
2022-09-24T11:43:03.518Z,100138.06
2022-09-24T11:45:41.260Z,100140.47
2022-09-24T11:48:17.158Z,100139.63
2022-09-24T11:51:03.237Z,100139.47
2022-09-24T11:53:48.194Z,100142.00
2022-09-24T11:56:20.732Z,100119.56
2022-09-24T11:58:50.367Z,100134.47
2022-09-24T12:01:20.866Z,100138.91
2022-09-24T12:03:47.495Z,100135.91
2022-09-24T12:06:17.524Z,100134.25
2022-09-24T12:08:52.394Z,100136.44
2022-09-24T12:11:22.299Z,100126.41
2022-09-24T12:14:09.071Z,100138.03
2022-09-24T12:16:40.030Z,100134.09
2022-09-24T12:19:14.482Z,100136.25
2022-09-24T12:21:43.291Z,100142.97
2022-09-24T12:24:17.612Z,100131.59
2022-09-24T12:26:45.557Z,100136.50
2022-09-24T12:29:47.886Z,100130.88
2022-09-24T12:32:33.107Z,100124.19
2022-09-24T12:35:02.514Z,100125.44
2022-09-24T12:37:32.048Z,100126.53
2022-09-24T12:40:17.087Z,100125.09
2022-09-24T12:42:47.845Z,100107.63
2022-09-24T12:45:19.879Z,100112.47
2022-09-24T12:47:49.402Z,100107.03
2022-09-24T12:50:20.715Z,100104.25
2022-09-24T12:52:47.378Z,100105.38
2022-09-24T12:55:21.895Z,100102.31
2022-09-24T12:57:54.454Z,100099.09
2022-09-24T13:00:43.148Z,100097.00
2022-09-24T13:03:28.029Z,100089.16
2022-09-24T13:05:56.591Z,100089.78
2022-09-24T13:08:24.871Z,100088.28
2022-09-24T13:10:58.897Z,100072.78
2022-09-24T13:13:31.861Z,100071.44
2022-09-24T13:16:18.691Z,100071.03
2022-09-24T13:18:56.173Z,100069.59
2022-09-24T13:21:24.865Z,100068.16
2022-09-24T13:23:53.631Z,100080.16
2022-09-24T13:26:32.107Z,100075.03
2022-09-24T13:29:00.786Z,100078.59
2022-09-24T13:31:27.426Z,100075.88
2022-09-24T13:33:56.535Z,100073.94
2022-09-24T13:36:22.971Z,100068.91
2022-09-24T13:39:03.276Z,100071.03
2022-09-24T13:41:36.800Z,100069.75
2022-09-24T13:44:12.770Z,100063.16
2022-09-24T13:46:41.275Z,100062.78
2022-09-24T13:49:12.273Z,100071.56
2022-09-24T13:51:40.699Z,100069.91
2022-09-24T13:54:14.839Z,100062.69
2022-09-24T13:56:41.385Z,100054.25
2022-09-24T13:59:12.307Z,100055.81
2022-09-24T14:01:43.380Z,100049.84
2022-09-24T14:04:20.675Z,100052.44
2022-09-24T14:06:50.422Z,100044.63
2022-09-24T14:09:30.741Z,100052.69
2022-09-24T14:11:58.712Z,100048.25
2022-09-24T14:14:27.929Z,100043.53
2022-09-24T14:16:57.357Z,100037.44
2022-09-24T14:19:23.997Z,100022.25
2022-09-24T14:21:55.163Z,100042.53
2022-09-24T14:24:24.851Z,100049.56
2022-09-24T14:26:57.124Z,100032.00
2022-09-24T14:29:28.370Z,100028.66
2022-09-24T14:31:59.881Z,100037.38
2022-09-24T14:34:34.376Z,100038.69
2022-09-24T14:37:07.369Z,100033.56
2022-09-24T14:39:37.377Z,100035.19
2022-09-24T14:42:08.839Z,100040.47
2022-09-24T14:44:35.505Z,100037.78
2022-09-24T14:47:02.525Z,100028.00
2022-09-24T14:49:43.088Z,100034.09
2022-09-24T14:52:25.685Z,100031.78
2022-09-24T14:55:01.432Z,100036.94
2022-09-24T14:57:27.849Z,100037.72
2022-09-24T14:59:54.412Z,100037.31
2022-09-24T15:02:33.677Z,100035.41
2022-09-24T15:05:05.898Z,100032.25
2022-09-24T15:07:34.506Z,100034.75
2022-09-24T15:10:02.726Z,100032.56
2022-09-24T15:12:33.245Z,100022.72
2022-09-24T15:15:02.637Z,100028.16
2022-09-24T15:17:30.983Z,100027.97
2022-09-24T15:19:58.477Z,100030.56
2022-09-24T15:22:29.054Z,100036.94
2022-09-24T15:25:01.163Z,100032.66
2022-09-24T15:27:30.271Z,100027.31
2022-09-24T15:29:59.531Z,100037.94
2022-09-24T15:32:26.622Z,100027.97
2022-09-24T15:34:55.105Z,100025.53
2022-09-24T15:37:22.636Z,100021.88
2022-09-24T15:39:49.836Z,100013.13
2022-09-24T15:42:20.701Z,100013.19
2022-09-24T15:44:47.647Z,100002.63
2022-09-24T15:47:14.539Z,100002.69
2022-09-24T15:49:40.990Z,100006.13
2022-09-24T15:54:33.729Z,100001.31
2022-09-24T15:57:01.348Z,99998.50
2022-09-24T15:59:27.956Z,100002.50
2022-09-24T16:01:55.993Z,99999.97
2022-09-24T16:04:22.499Z,99997.19
2022-09-24T16:06:50.055Z,99997.81
2022-09-24T16:09:16.561Z,99998.38
2022-09-24T16:11:43.001Z,100005.25
2022-09-24T16:14:09.816Z,100008.03
2022-09-24T16:16:38.359Z,100012.84
2022-09-24T16:19:07.121Z,100010.81
2022-09-24T16:21:33.553Z,100013.41
2022-09-24T16:24:00.810Z,100014.28
2022-09-24T16:26:27.336Z,100016.88
2022-09-24T16:28:53.838Z,100008.03
2022-09-24T16:31:20.652Z,100006.78
2022-09-24T16:33:47.374Z,100006.19
2022-09-24T16:36:14.019Z,99995.03
2022-09-24T16:38:40.618Z,99995.41
2022-09-24T16:41:07.603Z,99994.13
2022-09-24T16:43:34.152Z,99989.69
2022-09-24T16:46:04.466Z,99985.22
2022-09-24T16:48:31.409Z,100001.53
2022-09-24T16:51:08.644Z,99999.41
2022-09-24T16:53:35.686Z,100000.53
2022-09-24T16:56:15.383Z,100000.41
2022-09-24T16:58:42.434Z,100003.22
2022-09-24T17:01:10.162Z,100001.03
2022-09-24T17:03:37.040Z,99992.78
2022-09-24T17:06:03.786Z,100000.06
2022-09-24T17:08:54.189Z,99997.88
2022-09-24T17:11:21.284Z,100008.63
2022-09-24T17:13:47.891Z,100018.47
2022-09-24T17:16:15.222Z,100020.75
2022-09-24T17:18:41.746Z,100023.97
2022-09-24T17:21:09.747Z,100019.69
2022-09-24T17:23:36.254Z,100018.50
2022-09-24T17:26:02.777Z,100021.03
2022-09-24T17:28:32.101Z,100026.28
2022-09-24T17:30:58.684Z,100037.63
2022-09-24T17:33:42.914Z,100032.28
2022-09-24T17:36:10.848Z,100034.72
2022-09-24T17:38:37.643Z,100035.84
2022-09-24T17:41:05.769Z,100036.09
2022-09-24T17:43:32.323Z,100038.81
2022-09-24T17:46:02.149Z,100034.94
2022-09-24T17:48:30.965Z,100037.38
2022-09-24T17:50:58.264Z,100021.19
2022-09-24T17:53:25.244Z,100026.47
2022-09-24T17:55:52.660Z,100025.34
2022-09-24T17:58:19.831Z,100032.16
2022-09-24T18:00:48.248Z,100037.84
2022-09-24T18:03:14.830Z,100042.19
2022-09-24T18:05:41.262Z,100034.47
2022-09-24T18:08:08.148Z,100030.63
2022-09-24T18:10:34.664Z,100032.16
2022-09-24T18:13:01.180Z,100032.41
2022-09-24T18:15:29.756Z,100031.56
2022-09-24T18:17:56.955Z,100030.53
2022-09-24T18:20:23.978Z,100033.59
2022-09-24T18:22:50.936Z,100024.50
2022-09-24T18:25:18.510Z,100035.06
2022-09-24T18:27:47.688Z,100030.00
2022-09-24T18:30:15.540Z,100030.69
2022-09-24T18:32:44.741Z,100037.16
2022-09-24T18:35:11.631Z,100034.09
2022-09-24T18:37:39.908Z,100029.03
2022-09-24T18:40:07.517Z,100028.03
2022-09-24T18:42:36.716Z,100028.03
2022-09-24T18:45:03.523Z,100031.22
2022-09-24T18:47:30.091Z,100025.16
2022-09-24T18:49:56.581Z,100029.03
2022-09-24T18:52:23.281Z,100034.81
2022-09-24T18:54:50.266Z,100031.44
2022-09-24T18:57:16.750Z,100028.06
2022-09-24T18:59:46.903Z,100027.38
2022-09-24T19:02:14.109Z,100020.97
2022-09-24T19:04:41.583Z,100014.00
2022-09-24T19:07:08.890Z,100011.59
2022-09-24T19:09:36.144Z,100013.78
2022-09-24T19:12:05.591Z,100020.91
2022-09-24T19:14:32.118Z,100012.94
2022-09-24T19:16:58.610Z,100004.66
2022-09-24T19:19:26.813Z,100000.25
2022-09-24T19:21:53.537Z,100002.13
2022-09-24T19:24:20.002Z,100011.44
2022-09-24T19:26:46.510Z,100008.72
2022-09-24T19:29:14.439Z,100010.78
2022-09-24T19:31:42.528Z,100001.97
2022-09-24T19:34:11.524Z,99997.25
2022-09-24T19:36:43.846Z,99993.53
2022-09-24T19:39:11.918Z,99998.59
2022-09-24T19:41:38.517Z,99988.75
2022-09-24T19:44:08.838Z,99993.47
2022-09-24T19:46:37.200Z,99993.47
2022-09-24T19:49:03.902Z,99994.53
2022-09-24T19:51:32.142Z,99988.94
2022-09-24T19:54:07.749Z,99997.59
2022-09-24T19:56:34.619Z,99996.28
2022-09-24T19:59:01.365Z,100007.81
2022-09-24T20:01:29.068Z,100011.88
2022-09-24T20:03:56.209Z,99997.34
2022-09-24T20:06:23.786Z,100006.47
2022-09-24T20:08:50.270Z,100008.53
2022-09-24T20:11:19.450Z,100000.75
2022-09-24T20:13:46.775Z,100001.22
2022-09-24T20:16:15.510Z,100006.13
2022-09-24T20:18:43.157Z,100000.72
2022-09-24T20:21:12.714Z,100007.81
2022-09-24T20:23:42.315Z,100002.41
2022-09-24T20:26:29.358Z,99996.13
2022-09-24T20:28:55.943Z,99997.00
2022-09-24T20:31:22.705Z,99993.25
2022-09-24T20:33:49.777Z,99989.53
2022-09-24T20:36:20.726Z,99994.25
2022-09-24T20:38:49.822Z,99994.91
2022-09-24T20:41:19.989Z,100003.72
2022-09-24T20:43:46.707Z,99995.59
2022-09-24T20:46:22.430Z,99996.41
2022-09-24T20:48:49.088Z,99997.25
2022-09-24T20:51:18.150Z,100003.19
2022-09-24T20:53:45.267Z,100005.72
2022-09-24T20:56:11.786Z,100009.44
2022-09-24T20:58:39.913Z,100007.72
2022-09-24T21:01:07.496Z,100016.53
2022-09-24T21:03:49.648Z,100010.78
2022-09-24T21:06:16.826Z,100004.66
2022-09-24T21:08:44.577Z,100008.00
2022-09-24T21:11:18.470Z,100000.19
2022-09-24T21:13:52.226Z,99999.50
2022-09-24T21:16:20.822Z,100000.19
2022-09-24T21:18:47.964Z,100001.16
2022-09-24T21:21:18.188Z,99991.81
2022-09-24T21:23:45.452Z,99996.03
2022-09-24T21:26:12.237Z,99996.53
2022-09-24T21:28:38.712Z,99989.88
2022-09-24T21:31:05.911Z,99984.47
2022-09-24T21:33:33.238Z,99995.31
2022-09-24T21:36:00.620Z,99989.53
2022-09-24T21:38:27.391Z,99985.81
2022-09-24T21:40:54.606Z,99996.28
2022-09-24T21:43:25.261Z,99982.56
2022-09-24T21:45:52.966Z,99985.56
2022-09-24T21:48:19.476Z,99975.56
2022-09-24T21:50:46.024Z,99977.25
2022-09-24T21:53:12.558Z,99974.72
2022-09-24T21:55:39.300Z,99970.16
2022-09-24T21:58:05.775Z,99965.38
2022-09-24T22:00:32.295Z,99966.91
2022-09-24T22:02:59.316Z,99969.78
2022-09-24T22:05:25.773Z,99957.25
2022-09-24T22:07:55.134Z,99956.41
2022-09-24T22:10:21.586Z,99952.19
2022-09-24T22:12:48.067Z,99947.97
2022-09-24T22:15:14.652Z,99959.16
2022-09-24T22:17:41.186Z,99952.91
2022-09-24T22:20:07.977Z,99948.50
2022-09-24T22:22:34.407Z,99946.16
2022-09-24T22:25:00.826Z,99947.38
2022-09-24T22:27:27.269Z,99951.94
2022-09-24T22:29:53.693Z,99948.59
2022-09-24T22:32:20.215Z,99959.78
2022-09-24T22:35:05.044Z,99951.38
2022-09-24T22:37:32.226Z,99948.72
2022-09-24T22:39:58.743Z,99953.28
2022-09-24T22:42:25.219Z,99949.72
2022-09-24T22:44:51.950Z,99948.41
2022-09-24T22:47:18.383Z,99952.97
2022-09-24T22:49:44.874Z,99946.91
2022-09-24T22:52:11.326Z,99932.66
2022-09-24T22:54:37.760Z,99929.09
2022-09-24T22:57:04.231Z,99923.69
2022-09-24T22:59:30.725Z,99923.41
2022-09-24T23:01:57.184Z,99922.53
2022-09-24T23:04:23.796Z,99927.13
2022-09-24T23:06:50.234Z,99913.94
2022-09-24T23:09:16.694Z,99909.16
2022-09-24T23:11:43.272Z,99916.66
2022-09-24T23:14:12.512Z,99908.22
2022-09-24T23:16:39.337Z,99919.25
2022-09-24T23:19:12.850Z,99918.47
2022-09-24T23:21:39.617Z,99922.25
2022-09-24T23:24:13.159Z,99918.56
2022-09-24T23:26:39.656Z,99920.66
2022-09-24T23:29:06.859Z,99915.94
2022-09-24T23:31:34.359Z,99925.59
2022-09-24T23:34:01.439Z,99922.75
2022-09-24T23:36:30.210Z,99917.00
2022-09-24T23:38:56.825Z,99915.03
2022-09-24T23:41:23.574Z,99922.44
2022-09-24T23:43:50.084Z,99923.13
2022-09-24T23:46:17.056Z,99929.25
2022-09-24T23:48:44.016Z,99922.50
2022-09-24T23:51:11.054Z,99919.47
2022-09-24T23:53:37.835Z,99914.41
2022-09-24T23:56:05.534Z,99916.78
2022-09-24T23:58:32.153Z,99925.88
